sensor_id;sensor_type;location;lat;lon;timestamp;P1;durP1;ratioP1;P2;durP2;ratioP2
15183;SDS011;7693;49.266;7.104;2023-05-10T00:01:37;3.07;;;2.07;;
15183;SDS011;7693;49.266;7.104;2023-05-10T00:04:02;2.03;;;2.03;;
15183;SDS011;7693;49.266;7.104;2023-05-10T00:06:28;2.07;;;2.03;;
15183;SDS011;7693;49.266;7.104;2023-05-10T00:08:54;4.53;;;2.50;;
15183;SDS011;7693;49.266;7.104;2023-05-10T00:11:20;2.10;;;2.00;;
15183;SDS011;7693;49.266;7.104;2023-05-10T00:13:46;2.40;;;2.30;;
15183;SDS011;7693;49.266;7.104;2023-05-10T00:16:12;2.33;;;2.03;;
15183;SDS011;7693;49.266;7.104;2023-05-10T00:18:38;2.40;;;1.87;;
15183;SDS011;7693;49.266;7.104;2023-05-10T00:21:03;2.27;;;1.87;;
15183;SDS011;7693;49.266;7.104;2023-05-10T00:23:29;2.13;;;1.70;;
15183;SDS011;7693;49.266;7.104;2023-05-10T00:25:55;1.53;;;1.53;;
15183;SDS011;7693;49.266;7.104;2023-05-10T00:28:21;2.77;;;2.00;;
15183;SDS011;7693;49.266;7.104;2023-05-10T00:30:46;2.10;;;2.00;;
15183;SDS011;7693;49.266;7.104;2023-05-10T00:33:12;3.47;;;2.40;;
15183;SDS011;7693;49.266;7.104;2023-05-10T00:35:38;2.60;;;2.50;;
15183;SDS011;7693;49.266;7.104;2023-05-10T00:38:03;2.50;;;2.30;;
15183;SDS011;7693;49.266;7.104;2023-05-10T00:40:29;2.50;;;2.37;;
15183;SDS011;7693;49.266;7.104;2023-05-10T00:42:55;2.67;;;2.50;;
15183;SDS011;7693;49.266;7.104;2023-05-10T00:45:22;2.77;;;2.50;;
15183;SDS011;7693;49.266;7.104;2023-05-10T00:47:48;2.60;;;2.40;;
15183;SDS011;7693;49.266;7.104;2023-05-10T00:50:14;2.57;;;2.50;;
15183;SDS011;7693;49.266;7.104;2023-05-10T00:52:40;3.03;;;2.83;;
15183;SDS011;7693;49.266;7.104;2023-05-10T00:55:07;3.10;;;3.00;;
15183;SDS011;7693;49.266;7.104;2023-05-10T00:57:34;3.43;;;2.77;;
15183;SDS011;7693;49.266;7.104;2023-05-10T01:00:00;2.80;;;2.70;;
15183;SDS011;7693;49.266;7.104;2023-05-10T01:02:27;5.27;;;2.87;;
15183;SDS011;7693;49.266;7.104;2023-05-10T01:04:52;5.80;;;3.10;;
15183;SDS011;7693;49.266;7.104;2023-05-10T01:07:19;3.17;;;2.90;;
15183;SDS011;7693;49.266;7.104;2023-05-10T01:09:44;4.40;;;3.47;;
15183;SDS011;7693;49.266;7.104;2023-05-10T01:12:10;3.63;;;3.53;;
15183;SDS011;7693;49.266;7.104;2023-05-10T01:14:36;3.63;;;3.33;;
15183;SDS011;7693;49.266;7.104;2023-05-10T01:17:02;3.80;;;3.50;;
15183;SDS011;7693;49.266;7.104;2023-05-10T01:19:29;3.63;;;3.33;;
15183;SDS011;7693;49.266;7.104;2023-05-10T01:24:55;4.10;;;3.80;;
15183;SDS011;7693;49.266;7.104;2023-05-10T01:30:31;3.90;;;3.60;;
15183;SDS011;7693;49.266;7.104;2023-05-10T01:33:19;3.90;;;3.70;;
15183;SDS011;7693;49.266;7.104;2023-05-10T01:41:46;3.63;;;3.40;;
15183;SDS011;7693;49.266;7.104;2023-05-10T01:43:52;4.10;;;3.73;;
15183;SDS011;7693;49.266;7.104;2023-05-10T01:46:22;3.90;;;3.70;;
15183;SDS011;7693;49.266;7.104;2023-05-10T01:48:54;4.20;;;3.57;;
15183;SDS011;7693;49.266;7.104;2023-05-10T01:51:23;3.90;;;3.70;;
15183;SDS011;7693;49.266;7.104;2023-05-10T01:53:51;3.70;;;3.50;;
15183;SDS011;7693;49.266;7.104;2023-05-10T01:56:24;3.67;;;3.47;;
15183;SDS011;7693;49.266;7.104;2023-05-10T01:58:52;3.70;;;3.50;;
15183;SDS011;7693;49.266;7.104;2023-05-10T02:01:20;3.83;;;3.73;;
15183;SDS011;7693;49.266;7.104;2023-05-10T02:03:46;3.67;;;3.47;;
15183;SDS011;7693;49.266;7.104;2023-05-10T02:06:14;4.23;;;3.93;;
15183;SDS011;7693;49.266;7.104;2023-05-10T02:08:43;3.80;;;3.70;;
15183;SDS011;7693;49.266;7.104;2023-05-10T02:11:10;3.87;;;3.70;;
15183;SDS011;7693;49.266;7.104;2023-05-10T02:13:38;3.87;;;3.67;;
15183;SDS011;7693;49.266;7.104;2023-05-10T02:16:05;4.40;;;4.20;;
15183;SDS011;7693;49.266;7.104;2023-05-10T02:18:31;4.43;;;4.13;;
15183;SDS011;7693;49.266;7.104;2023-05-10T02:20:58;4.53;;;4.30;;
15183;SDS011;7693;49.266;7.104;2023-05-10T02:23:25;4.60;;;4.30;;
15183;SDS011;7693;49.266;7.104;2023-05-10T02:25:51;4.93;;;4.53;;
15183;SDS011;7693;49.266;7.104;2023-05-10T02:28:18;4.80;;;4.43;;
15183;SDS011;7693;49.266;7.104;2023-05-10T02:30:46;5.60;;;4.63;;
15183;SDS011;7693;49.266;7.104;2023-05-10T02:33:13;4.93;;;4.43;;
15183;SDS011;7693;49.266;7.104;2023-05-10T02:35:39;4.70;;;4.47;;
15183;SDS011;7693;49.266;7.104;2023-05-10T02:38:05;5.03;;;4.70;;
15183;SDS011;7693;49.266;7.104;2023-05-10T02:40:32;6.63;;;4.57;;
15183;SDS011;7693;49.266;7.104;2023-05-10T02:42:59;5.00;;;4.70;;
15183;SDS011;7693;49.266;7.104;2023-05-10T02:45:28;4.63;;;4.27;;
15183;SDS011;7693;49.266;7.104;2023-05-10T02:47:56;4.70;;;4.40;;
15183;SDS011;7693;49.266;7.104;2023-05-10T02:50:22;4.73;;;4.37;;
15183;SDS011;7693;49.266;7.104;2023-05-10T02:52:50;4.80;;;4.60;;
15183;SDS011;7693;49.266;7.104;2023-05-10T02:55:18;4.83;;;4.40;;
15183;SDS011;7693;49.266;7.104;2023-05-10T02:57:55;5.30;;;5.00;;
15183;SDS011;7693;49.266;7.104;2023-05-10T03:00:25;5.23;;;4.73;;
15183;SDS011;7693;49.266;7.104;2023-05-10T03:02:51;4.93;;;4.70;;
15183;SDS011;7693;49.266;7.104;2023-05-10T03:05:17;4.80;;;4.50;;
15183;SDS011;7693;49.266;7.104;2023-05-10T03:07:43;7.07;;;5.80;;
15183;SDS011;7693;49.266;7.104;2023-05-10T03:10:09;6.37;;;5.47;;
15183;SDS011;7693;49.266;7.104;2023-05-10T03:15:22;4.93;;;4.53;;
15183;SDS011;7693;49.266;7.104;2023-05-10T03:18:02;4.53;;;4.33;;
15183;SDS011;7693;49.266;7.104;2023-05-10T03:20:46;4.10;;;3.90;;
15183;SDS011;7693;49.266;7.104;2023-05-10T03:25:43;4.30;;;4.10;;
15183;SDS011;7693;49.266;7.104;2023-05-10T03:28:11;4.37;;;4.03;;
15183;SDS011;7693;49.266;7.104;2023-05-10T03:30:39;4.50;;;4.40;;
15183;SDS011;7693;49.266;7.104;2023-05-10T03:33:07;4.93;;;4.47;;
15183;SDS011;7693;49.266;7.104;2023-05-10T03:35:33;4.30;;;3.60;;
15183;SDS011;7693;49.266;7.104;2023-05-10T03:37:59;4.30;;;4.10;;
15183;SDS011;7693;49.266;7.104;2023-05-10T03:40:25;4.40;;;4.20;;
15183;SDS011;7693;49.266;7.104;2023-05-10T03:42:53;4.57;;;4.20;;
15183;SDS011;7693;49.266;7.104;2023-05-10T03:45:19;4.50;;;4.20;;
15183;SDS011;7693;49.266;7.104;2023-05-10T03:47:45;3.97;;;3.77;;
15183;SDS011;7693;49.266;7.104;2023-05-10T03:50:10;4.10;;;3.90;;
15183;SDS011;7693;49.266;7.104;2023-05-10T03:52:36;4.53;;;4.33;;
15183;SDS011;7693;49.266;7.104;2023-05-10T03:55:04;4.30;;;4.10;;
15183;SDS011;7693;49.266;7.104;2023-05-10T03:57:30;4.60;;;4.23;;
15183;SDS011;7693;49.266;7.104;2023-05-10T03:59:55;4.73;;;4.33;;
15183;SDS011;7693;49.266;7.104;2023-05-10T04:02:21;3.97;;;3.87;;
15183;SDS011;7693;49.266;7.104;2023-05-10T04:04:46;4.10;;;3.70;;
15183;SDS011;7693;49.266;7.104;2023-05-10T04:07:13;4.47;;;4.27;;
15183;SDS011;7693;49.266;7.104;2023-05-10T04:09:38;4.23;;;3.83;;
15183;SDS011;7693;49.266;7.104;2023-05-10T04:12:04;4.87;;;4.50;;
15183;SDS011;7693;49.266;7.104;2023-05-10T04:14:30;5.47;;;4.97;;
15183;SDS011;7693;49.266;7.104;2023-05-10T04:16:56;5.13;;;4.60;;
15183;SDS011;7693;49.266;7.104;2023-05-10T04:19:21;5.10;;;4.77;;
15183;SDS011;7693;49.266;7.104;2023-05-10T04:21:47;4.80;;;4.47;;
15183;SDS011;7693;49.266;7.104;2023-05-10T04:24:13;4.50;;;4.30;;
15183;SDS011;7693;49.266;7.104;2023-05-10T04:26:38;4.80;;;4.50;;
15183;SDS011;7693;49.266;7.104;2023-05-10T04:29:04;5.90;;;3.80;;
15183;SDS011;7693;49.266;7.104;2023-05-10T04:31:30;3.90;;;3.70;;
15183;SDS011;7693;49.266;7.104;2023-05-10T04:33:55;3.73;;;3.53;;
15183;SDS011;7693;49.266;7.104;2023-05-10T04:36:21;4.03;;;3.93;;
15183;SDS011;7693;49.266;7.104;2023-05-10T04:38:46;4.47;;;4.27;;
15183;SDS011;7693;49.266;7.104;2023-05-10T04:41:12;4.00;;;3.80;;
15183;SDS011;7693;49.266;7.104;2023-05-10T04:43:37;4.33;;;4.03;;
15183;SDS011;7693;49.266;7.104;2023-05-10T04:46:03;4.27;;;3.93;;
15183;SDS011;7693;49.266;7.104;2023-05-10T04:48:29;3.97;;;3.77;;
15183;SDS011;7693;49.266;7.104;2023-05-10T04:50:55;3.70;;;3.50;;
15183;SDS011;7693;49.266;7.104;2023-05-10T04:53:21;4.73;;;4.43;;
15183;SDS011;7693;49.266;7.104;2023-05-10T04:55:47;4.43;;;3.50;;
15183;SDS011;7693;49.266;7.104;2023-05-10T04:58:13;5.87;;;4.07;;
15183;SDS011;7693;49.266;7.104;2023-05-10T05:00:38;4.60;;;3.97;;
15183;SDS011;7693;49.266;7.104;2023-05-10T05:03:04;3.20;;;3.10;;
15183;SDS011;7693;49.266;7.104;2023-05-10T05:05:30;3.33;;;3.23;;
15183;SDS011;7693;49.266;7.104;2023-05-10T05:07:55;4.50;;;3.40;;
15183;SDS011;7693;49.266;7.104;2023-05-10T05:10:21;3.50;;;2.63;;
15183;SDS011;7693;49.266;7.104;2023-05-10T05:12:47;4.80;;;3.50;;
15183;SDS011;7693;49.266;7.104;2023-05-10T05:15:12;3.37;;;3.17;;
15183;SDS011;7693;49.266;7.104;2023-05-10T05:17:40;3.23;;;3.10;;
15183;SDS011;7693;49.266;7.104;2023-05-10T05:20:05;3.77;;;3.57;;
15183;SDS011;7693;49.266;7.104;2023-05-10T05:22:32;4.40;;;3.30;;
15183;SDS011;7693;49.266;7.104;2023-05-10T05:24:57;2.80;;;2.63;;
15183;SDS011;7693;49.266;7.104;2023-05-10T05:27:23;2.77;;;2.67;;
15183;SDS011;7693;49.266;7.104;2023-05-10T05:29:54;3.17;;;3.07;;
15183;SDS011;7693;49.266;7.104;2023-05-10T05:32:20;2.77;;;2.60;;
15183;SDS011;7693;49.266;7.104;2023-05-10T05:34:46;2.83;;;2.70;;
15183;SDS011;7693;49.266;7.104;2023-05-10T05:37:13;3.10;;;3.00;;
15183;SDS011;7693;49.266;7.104;2023-05-10T05:39:43;3.23;;;2.93;;
15183;SDS011;7693;49.266;7.104;2023-05-10T05:42:09;3.33;;;3.13;;
15183;SDS011;7693;49.266;7.104;2023-05-10T05:44:35;3.63;;;3.20;;
15183;SDS011;7693;49.266;7.104;2023-05-10T05:47:01;3.37;;;2.80;;
15183;SDS011;7693;49.266;7.104;2023-05-10T05:49:27;5.23;;;3.20;;
15183;SDS011;7693;49.266;7.104;2023-05-10T05:51:52;3.20;;;3.00;;
15183;SDS011;7693;49.266;7.104;2023-05-10T05:54:18;11.40;;;3.37;;
15183;SDS011;7693;49.266;7.104;2023-05-10T05:56:43;6.70;;;3.13;;
15183;SDS011;7693;49.266;7.104;2023-05-10T05:59:09;3.47;;;2.73;;
15183;SDS011;7693;49.266;7.104;2023-05-10T06:01:35;3.17;;;2.60;;
15183;SDS011;7693;49.266;7.104;2023-05-10T06:04:01;6.10;;;2.90;;
15183;SDS011;7693;49.266;7.104;2023-05-10T06:06:27;2.80;;;2.60;;
15183;SDS011;7693;49.266;7.104;2023-05-10T06:08:52;2.77;;;2.60;;
15183;SDS011;7693;49.266;7.104;2023-05-10T06:11:18;2.30;;;2.20;;
15183;SDS011;7693;49.266;7.104;2023-05-10T06:13:44;4.80;;;3.20;;
15183;SDS011;7693;49.266;7.104;2023-05-10T06:16:09;2.83;;;2.60;;
15183;SDS011;7693;49.266;7.104;2023-05-10T06:18:35;2.83;;;2.37;;
15183;SDS011;7693;49.266;7.104;2023-05-10T06:21:01;3.33;;;2.20;;
15183;SDS011;7693;49.266;7.104;2023-05-10T06:23:27;2.83;;;2.70;;
15183;SDS011;7693;49.266;7.104;2023-05-10T06:25:52;2.00;;;2.00;;
15183;SDS011;7693;49.266;7.104;2023-05-10T06:28:18;2.67;;;2.00;;
15183;SDS011;7693;49.266;7.104;2023-05-10T06:30:43;5.33;;;1.90;;
15183;SDS011;7693;49.266;7.104;2023-05-10T06:33:09;2.07;;;1.97;;
15183;SDS011;7693;49.266;7.104;2023-05-10T06:35:34;4.77;;;2.10;;
15183;SDS011;7693;49.266;7.104;2023-05-10T06:38:01;5.37;;;2.17;;
15183;SDS011;7693;49.266;7.104;2023-05-10T06:40:27;3.47;;;2.20;;
15183;SDS011;7693;49.266;7.104;2023-05-10T06:42:52;3.33;;;1.87;;
15183;SDS011;7693;49.266;7.104;2023-05-10T06:45:18;1.67;;;1.63;;
15183;SDS011;7693;49.266;7.104;2023-05-10T06:47:44;2.00;;;1.77;;
15183;SDS011;7693;49.266;7.104;2023-05-10T06:50:10;4.27;;;2.00;;
15183;SDS011;7693;49.266;7.104;2023-05-10T06:52:37;1.73;;;1.63;;
15183;SDS011;7693;49.266;7.104;2023-05-10T06:55:05;3.07;;;1.60;;
15183;SDS011;7693;49.266;7.104;2023-05-10T06:57:32;2.00;;;1.80;;
15183;SDS011;7693;49.266;7.104;2023-05-10T07:00:00;1.77;;;1.70;;
15183;SDS011;7693;49.266;7.104;2023-05-10T07:02:28;3.47;;;1.70;;
15183;SDS011;7693;49.266;7.104;2023-05-10T07:04:54;2.10;;;1.90;;
15183;SDS011;7693;49.266;7.104;2023-05-10T07:07:20;1.73;;;1.63;;
15183;SDS011;7693;49.266;7.104;2023-05-10T07:09:45;3.27;;;1.50;;
15183;SDS011;7693;49.266;7.104;2023-05-10T07:12:11;1.57;;;1.57;;
15183;SDS011;7693;49.266;7.104;2023-05-10T07:14:37;1.70;;;1.70;;
15183;SDS011;7693;49.266;7.104;2023-05-10T07:17:02;2.43;;;2.27;;
15183;SDS011;7693;49.266;7.104;2023-05-10T07:19:28;2.57;;;1.60;;
15183;SDS011;7693;49.266;7.104;2023-05-10T07:21:54;1.60;;;1.50;;
15183;SDS011;7693;49.266;7.104;2023-05-10T07:24:20;3.10;;;1.63;;
15183;SDS011;7693;49.266;7.104;2023-05-10T07:26:45;1.50;;;1.40;;
15183;SDS011;7693;49.266;7.104;2023-05-10T07:29:11;4.77;;;1.67;;
15183;SDS011;7693;49.266;7.104;2023-05-10T07:31:37;1.40;;;1.40;;
15183;SDS011;7693;49.266;7.104;2023-05-10T07:34:07;1.60;;;1.50;;
15183;SDS011;7693;49.266;7.104;2023-05-10T07:36:33;1.60;;;1.60;;
15183;SDS011;7693;49.266;7.104;2023-05-10T07:38:59;1.70;;;1.60;;
15183;SDS011;7693;49.266;7.104;2023-05-10T07:41:24;2.20;;;1.67;;
15183;SDS011;7693;49.266;7.104;2023-05-10T07:43:50;1.50;;;1.40;;
15183;SDS011;7693;49.266;7.104;2023-05-10T07:46:16;2.70;;;1.70;;
15183;SDS011;7693;49.266;7.104;2023-05-10T07:48:41;1.40;;;1.30;;
15183;SDS011;7693;49.266;7.104;2023-05-10T07:51:07;2.07;;;1.23;;
15183;SDS011;7693;49.266;7.104;2023-05-10T07:53:34;5.00;;;1.30;;
15183;SDS011;7693;49.266;7.104;2023-05-10T07:59:21;7.40;;;1.60;;
15183;SDS011;7693;49.266;7.104;2023-05-10T08:01:47;2.78;;;1.40;;
15183;SDS011;7693;49.266;7.104;2023-05-10T08:04:13;2.60;;;1.80;;
15183;SDS011;7693;49.266;7.104;2023-05-10T08:06:39;2.03;;;1.30;;
15183;SDS011;7693;49.266;7.104;2023-05-10T08:09:05;2.40;;;1.67;;
15183;SDS011;7693;49.266;7.104;2023-05-10T08:11:30;1.60;;;1.40;;
15183;SDS011;7693;49.266;7.104;2023-05-10T08:13:56;2.00;;;1.47;;
15183;SDS011;7693;49.266;7.104;2023-05-10T08:16:21;2.57;;;1.40;;
15183;SDS011;7693;49.266;7.104;2023-05-10T08:18:47;1.50;;;1.40;;
15183;SDS011;7693;49.266;7.104;2023-05-10T08:21:14;4.70;;;1.77;;
15183;SDS011;7693;49.266;7.104;2023-05-10T08:23:40;5.87;;;1.80;;
15183;SDS011;7693;49.266;7.104;2023-05-10T08:26:06;4.40;;;1.70;;
15183;SDS011;7693;49.266;7.104;2023-05-10T08:28:31;5.63;;;2.00;;
15183;SDS011;7693;49.266;7.104;2023-05-10T08:30:57;2.97;;;1.77;;
15183;SDS011;7693;49.266;7.104;2023-05-10T08:33:22;2.27;;;1.43;;
15183;SDS011;7693;49.266;7.104;2023-05-10T08:35:48;2.67;;;1.60;;
15183;SDS011;7693;49.266;7.104;2023-05-10T08:38:14;3.27;;;1.60;;
15183;SDS011;7693;49.266;7.104;2023-05-10T08:40:43;3.70;;;1.70;;
15183;SDS011;7693;49.266;7.104;2023-05-10T08:43:10;5.40;;;1.87;;
15183;SDS011;7693;49.266;7.104;2023-05-10T08:45:38;2.80;;;1.73;;
15183;SDS011;7693;49.266;7.104;2023-05-10T08:48:05;5.30;;;2.10;;
15183;SDS011;7693;49.266;7.104;2023-05-10T08:50:32;3.27;;;2.00;;
15183;SDS011;7693;49.266;7.104;2023-05-10T08:53:04;2.83;;;1.63;;
15183;SDS011;7693;49.266;7.104;2023-05-10T08:55:37;3.30;;;1.87;;
15183;SDS011;7693;49.266;7.104;2023-05-10T08:58:06;1.90;;;1.40;;
15183;SDS011;7693;49.266;7.104;2023-05-10T09:00:32;4.80;;;1.73;;
15183;SDS011;7693;49.266;7.104;2023-05-10T09:02:58;1.83;;;1.73;;
15183;SDS011;7693;49.266;7.104;2023-05-10T09:05:25;4.63;;;2.00;;
15183;SDS011;7693;49.266;7.104;2023-05-10T09:07:51;4.75;;;1.75;;
15183;SDS011;7693;49.266;7.104;2023-05-10T09:17:03;2.97;;;1.93;;
15183;SDS011;7693;49.266;7.104;2023-05-10T09:19:29;3.67;;;1.90;;
15183;SDS011;7693;49.266;7.104;2023-05-10T09:21:55;3.57;;;1.80;;
15183;SDS011;7693;49.266;7.104;2023-05-10T09:24:24;4.00;;;1.80;;
15183;SDS011;7693;49.266;7.104;2023-05-10T09:26:51;1.60;;;1.50;;
15183;SDS011;7693;49.266;7.104;2023-05-10T09:29:17;4.70;;;1.50;;
15183;SDS011;7693;49.266;7.104;2023-05-10T09:34:09;2.13;;;1.60;;
15183;SDS011;7693;49.266;7.104;2023-05-10T09:36:35;4.30;;;1.60;;
15183;SDS011;7693;49.266;7.104;2023-05-10T09:39:00;2.30;;;1.70;;
15183;SDS011;7693;49.266;7.104;2023-05-10T09:41:27;1.87;;;1.70;;
15183;SDS011;7693;49.266;7.104;2023-05-10T09:43:55;1.60;;;1.50;;
15183;SDS011;7693;49.266;7.104;2023-05-10T09:46:26;4.00;;;1.50;;
15183;SDS011;7693;49.266;7.104;2023-05-10T09:48:52;3.22;;;1.52;;
15183;SDS011;7693;49.266;7.104;2023-05-10T09:51:21;1.33;;;1.20;;
15183;SDS011;7693;49.266;7.104;2023-05-10T09:54:15;3.00;;;1.60;;
15183;SDS011;7693;49.266;7.104;2023-05-10T09:56:42;3.60;;;1.60;;
15183;SDS011;7693;49.266;7.104;2023-05-10T09:59:11;1.45;;;1.30;;
15183;SDS011;7693;49.266;7.104;2023-05-10T13:30:40;1.55;;;1.10;;
15183;SDS011;7693;49.266;7.104;2023-05-10T13:33:09;0.95;;;0.93;;
15183;SDS011;7693;49.266;7.104;2023-05-10T13:35:35;1.33;;;1.33;;
15183;SDS011;7693;49.266;7.104;2023-05-10T13:38:03;3.20;;;1.60;;
15183;SDS011;7693;49.266;7.104;2023-05-10T13:40:29;1.35;;;1.00;;
15183;SDS011;7693;49.266;7.104;2023-05-10T13:42:58;2.05;;;1.10;;
15183;SDS011;7693;49.266;7.104;2023-05-10T13:45:23;1.23;;;1.20;;
15183;SDS011;7693;49.266;7.104;2023-05-10T13:47:49;2.10;;;1.67;;
15183;SDS011;7693;49.266;7.104;2023-05-10T13:50:14;1.58;;;1.00;;
15183;SDS011;7693;49.266;7.104;2023-05-10T13:52:43;0.80;;;0.80;;
15183;SDS011;7693;49.266;7.104;2023-05-10T13:55:09;1.00;;;1.00;;
15183;SDS011;7693;49.266;7.104;2023-05-10T13:57:37;2.83;;;1.00;;
15183;SDS011;7693;49.266;7.104;2023-05-10T14:00:06;1.38;;;1.00;;
15183;SDS011;7693;49.266;7.104;2023-05-10T14:02:32;1.13;;;1.10;;
15183;SDS011;7693;49.266;7.104;2023-05-10T14:04:58;1.20;;;1.10;;
15183;SDS011;7693;49.266;7.104;2023-05-10T14:07:26;1.10;;;1.10;;
15183;SDS011;7693;49.266;7.104;2023-05-10T14:09:52;2.25;;;1.20;;
15183;SDS011;7693;49.266;7.104;2023-05-10T14:12:17;2.00;;;1.15;;
15183;SDS011;7693;49.266;7.104;2023-05-10T14:14:43;1.30;;;1.20;;
15183;SDS011;7693;49.266;7.104;2023-05-10T14:17:08;1.92;;;1.13;;
15183;SDS011;7693;49.266;7.104;2023-05-10T14:19:34;1.33;;;1.20;;
15183;SDS011;7693;49.266;7.104;2023-05-10T14:22:00;1.55;;;1.10;;
15183;SDS011;7693;49.266;7.104;2023-05-10T14:24:25;2.72;;;1.40;;
15183;SDS011;7693;49.266;7.104;2023-05-10T14:26:51;2.15;;;1.23;;
15183;SDS011;7693;49.266;7.104;2023-05-10T14:29:18;1.27;;;1.00;;
15183;SDS011;7693;49.266;7.104;2023-05-10T14:31:54;2.72;;;1.10;;
15183;SDS011;7693;49.266;7.104;2023-05-10T14:34:19;1.08;;;1.02;;
15183;SDS011;7693;49.266;7.104;2023-05-10T14:36:47;1.10;;;1.10;;
15183;SDS011;7693;49.266;7.104;2023-05-10T14:39:16;1.20;;;1.20;;
15183;SDS011;7693;49.266;7.104;2023-05-10T14:41:41;1.15;;;1.13;;
15183;SDS011;7693;49.266;7.104;2023-05-10T14:44:09;1.38;;;1.08;;
15183;SDS011;7693;49.266;7.104;2023-05-10T14:46:35;3.92;;;1.13;;
15183;SDS011;7693;49.266;7.104;2023-05-10T14:49:03;0.98;;;0.98;;
15183;SDS011;7693;49.266;7.104;2023-05-10T14:51:29;2.05;;;0.80;;
15183;SDS011;7693;49.266;7.104;2023-05-10T14:54:03;0.90;;;0.90;;
15183;SDS011;7693;49.266;7.104;2023-05-10T14:56:28;1.85;;;1.02;;
15183;SDS011;7693;49.266;7.104;2023-05-10T14:58:57;1.88;;;1.10;;
15183;SDS011;7693;49.266;7.104;2023-05-10T15:01:22;3.40;;;0.90;;
15183;SDS011;7693;49.266;7.104;2023-05-10T15:03:51;1.13;;;1.00;;
15183;SDS011;7693;49.266;7.104;2023-05-10T15:06:16;0.90;;;0.90;;
15183;SDS011;7693;49.266;7.104;2023-05-10T15:08:51;1.00;;;1.00;;
15183;SDS011;7693;49.266;7.104;2023-05-10T15:11:16;1.30;;;1.30;;
15183;SDS011;7693;49.266;7.104;2023-05-10T15:13:42;1.00;;;1.00;;
15183;SDS011;7693;49.266;7.104;2023-05-10T15:16:11;0.95;;;0.95;;
15183;SDS011;7693;49.266;7.104;2023-05-10T15:18:39;0.90;;;0.90;;
15183;SDS011;7693;49.266;7.104;2023-05-10T15:21:05;1.58;;;0.90;;
15183;SDS011;7693;49.266;7.104;2023-05-10T15:23:33;1.67;;;1.20;;
15183;SDS011;7693;49.266;7.104;2023-05-10T15:25:59;1.83;;;1.27;;
15183;SDS011;7693;49.266;7.104;2023-05-10T15:28:25;5.07;;;1.30;;
15183;SDS011;7693;49.266;7.104;2023-05-10T15:30:51;2.47;;;1.20;;
15183;SDS011;7693;49.266;7.104;2023-05-10T15:33:16;1.85;;;1.67;;
15183;SDS011;7693;49.266;7.104;2023-05-10T15:35:42;1.50;;;1.40;;
15183;SDS011;7693;49.266;7.104;2023-05-10T15:38:08;2.85;;;1.20;;
15183;SDS011;7693;49.266;7.104;2023-05-10T15:40:34;1.58;;;1.38;;
15183;SDS011;7693;49.266;7.104;2023-05-10T15:43:00;1.73;;;1.40;;
15183;SDS011;7693;49.266;7.104;2023-05-10T15:45:26;4.25;;;1.60;;
15183;SDS011;7693;49.266;7.104;2023-05-10T15:47:51;2.65;;;1.50;;
15183;SDS011;7693;49.266;7.104;2023-05-10T15:50:17;1.02;;;1.02;;
15183;SDS011;7693;49.266;7.104;2023-05-10T15:52:43;1.33;;;1.23;;
15183;SDS011;7693;49.266;7.104;2023-05-10T15:55:08;1.98;;;1.88;;
15183;SDS011;7693;49.266;7.104;2023-05-10T15:57:40;1.27;;;1.27;;
15183;SDS011;7693;49.266;7.104;2023-05-10T16:00:10;1.80;;;1.20;;
15183;SDS011;7693;49.266;7.104;2023-05-10T16:02:36;1.35;;;1.33;;
15183;SDS011;7693;49.266;7.104;2023-05-10T16:05:06;1.20;;;1.20;;
15183;SDS011;7693;49.266;7.104;2023-05-10T16:07:32;1.10;;;1.10;;
15183;SDS011;7693;49.266;7.104;2023-05-10T16:09:58;2.35;;;1.27;;
15183;SDS011;7693;49.266;7.104;2023-05-10T16:12:23;1.15;;;1.15;;
15183;SDS011;7693;49.266;7.104;2023-05-10T16:14:49;0.95;;;0.95;;
15183;SDS011;7693;49.266;7.104;2023-05-10T16:17:15;0.95;;;0.95;;
15183;SDS011;7693;49.266;7.104;2023-05-10T16:19:40;1.23;;;1.10;;
15183;SDS011;7693;49.266;7.104;2023-05-10T16:22:06;1.08;;;1.00;;
15183;SDS011;7693;49.266;7.104;2023-05-10T16:24:34;1.10;;;1.10;;
15183;SDS011;7693;49.266;7.104;2023-05-10T16:27:03;1.25;;;1.15;;
15183;SDS011;7693;49.266;7.104;2023-05-10T16:29:29;1.00;;;1.00;;
15183;SDS011;7693;49.266;7.104;2023-05-10T16:31:55;0.93;;;0.93;;
15183;SDS011;7693;49.266;7.104;2023-05-10T16:34:21;0.80;;;0.80;;
15183;SDS011;7693;49.266;7.104;2023-05-10T16:36:51;0.90;;;0.90;;
15183;SDS011;7693;49.266;7.104;2023-05-10T16:39:20;0.90;;;0.90;;
15183;SDS011;7693;49.266;7.104;2023-05-10T16:41:48;1.30;;;1.08;;
15183;SDS011;7693;49.266;7.104;2023-05-10T16:44:14;1.95;;;1.02;;
15183;SDS011;7693;49.266;7.104;2023-05-10T16:46:43;1.00;;;1.00;;
15183;SDS011;7693;49.266;7.104;2023-05-10T16:49:09;0.85;;;0.85;;
15183;SDS011;7693;49.266;7.104;2023-05-10T16:51:41;1.10;;;1.10;;
15183;SDS011;7693;49.266;7.104;2023-05-10T16:54:07;2.38;;;1.13;;
15183;SDS011;7693;49.266;7.104;2023-05-10T16:56:35;3.75;;;1.30;;
15183;SDS011;7693;49.266;7.104;2023-05-10T16:59:01;2.88;;;1.30;;
15183;SDS011;7693;49.266;7.104;2023-05-10T17:01:26;1.20;;;1.10;;
15183;SDS011;7693;49.266;7.104;2023-05-10T17:03:52;1.00;;;1.00;;
15183;SDS011;7693;49.266;7.104;2023-05-10T17:06:21;1.00;;;1.00;;
15183;SDS011;7693;49.266;7.104;2023-05-10T17:08:46;3.85;;;1.30;;
15183;SDS011;7693;49.266;7.104;2023-05-10T17:11:12;1.00;;;1.00;;
15183;SDS011;7693;49.266;7.104;2023-05-10T17:13:37;1.38;;;1.10;;
15183;SDS011;7693;49.266;7.104;2023-05-10T17:16:06;1.10;;;1.10;;
15183;SDS011;7693;49.266;7.104;2023-05-10T17:18:32;1.10;;;1.10;;
15183;SDS011;7693;49.266;7.104;2023-05-10T17:20:57;1.70;;;1.60;;
15183;SDS011;7693;49.266;7.104;2023-05-10T17:23:23;1.00;;;1.00;;
15183;SDS011;7693;49.266;7.104;2023-05-10T17:25:48;1.00;;;1.00;;
15183;SDS011;7693;49.266;7.104;2023-05-10T17:28:14;1.38;;;1.25;;
15183;SDS011;7693;49.266;7.104;2023-05-10T17:30:40;1.20;;;1.10;;
15183;SDS011;7693;49.266;7.104;2023-05-10T17:33:05;1.08;;;1.08;;
15183;SDS011;7693;49.266;7.104;2023-05-10T17:35:31;0.90;;;0.90;;
15183;SDS011;7693;49.266;7.104;2023-05-10T17:38:02;1.30;;;1.30;;
15183;SDS011;7693;49.266;7.104;2023-05-10T17:40:30;1.33;;;1.23;;
15183;SDS011;7693;49.266;7.104;2023-05-10T17:42:56;1.42;;;1.23;;
15183;SDS011;7693;49.266;7.104;2023-05-10T17:45:22;1.00;;;1.00;;
15183;SDS011;7693;49.266;7.104;2023-05-10T17:47:50;1.30;;;1.30;;
15183;SDS011;7693;49.266;7.104;2023-05-10T17:50:16;2.80;;;1.30;;
15183;SDS011;7693;49.266;7.104;2023-05-10T17:52:41;1.75;;;1.50;;
15183;SDS011;7693;49.266;7.104;2023-05-10T17:55:07;1.10;;;1.10;;
15183;SDS011;7693;49.266;7.104;2023-05-10T17:57:33;1.98;;;1.27;;
15183;SDS011;7693;49.266;7.104;2023-05-10T17:59:58;1.33;;;1.33;;
15183;SDS011;7693;49.266;7.104;2023-05-10T18:02:26;1.30;;;1.20;;
15183;SDS011;7693;49.266;7.104;2023-05-10T18:04:54;1.20;;;1.20;;
15183;SDS011;7693;49.266;7.104;2023-05-10T18:07:20;1.10;;;1.10;;
15183;SDS011;7693;49.266;7.104;2023-05-10T18:09:50;1.30;;;1.30;;
15183;SDS011;7693;49.266;7.104;2023-05-10T18:12:16;3.13;;;1.25;;
15183;SDS011;7693;49.266;7.104;2023-05-10T18:14:41;2.85;;;1.10;;
15183;SDS011;7693;49.266;7.104;2023-05-10T18:17:07;1.30;;;1.20;;
15183;SDS011;7693;49.266;7.104;2023-05-10T18:19:39;1.20;;;1.08;;
15183;SDS011;7693;49.266;7.104;2023-05-10T18:22:05;1.45;;;1.38;;
15183;SDS011;7693;49.266;7.104;2023-05-10T18:24:31;1.50;;;1.50;;
15183;SDS011;7693;49.266;7.104;2023-05-10T18:27:00;1.40;;;1.40;;
15183;SDS011;7693;49.266;7.104;2023-05-10T18:29:27;1.65;;;1.55;;
15183;SDS011;7693;49.266;7.104;2023-05-10T18:31:52;1.40;;;1.40;;
15183;SDS011;7693;49.266;7.104;2023-05-10T18:34:18;2.30;;;1.70;;
15183;SDS011;7693;49.266;7.104;2023-05-10T18:36:46;3.08;;;1.77;;
15183;SDS011;7693;49.266;7.104;2023-05-10T18:39:12;1.63;;;1.63;;
15183;SDS011;7693;49.266;7.104;2023-05-10T18:41:38;2.00;;;1.90;;
15183;SDS011;7693;49.266;7.104;2023-05-10T18:44:04;1.95;;;1.55;;
15183;SDS011;7693;49.266;7.104;2023-05-10T18:46:29;1.50;;;1.48;;
15183;SDS011;7693;49.266;7.104;2023-05-10T18:48:55;1.42;;;1.27;;
15183;SDS011;7693;49.266;7.104;2023-05-10T18:51:20;1.20;;;1.20;;
15183;SDS011;7693;49.266;7.104;2023-05-10T18:53:47;2.13;;;1.50;;
15183;SDS011;7693;49.266;7.104;2023-05-10T18:56:13;2.15;;;1.70;;